createdAt,value
2018-12-29T00:00:55.975Z,61.09
2018-12-29T00:03:26.276Z,61.07
2018-12-29T00:05:56.694Z,61.10
2018-12-29T00:08:27.044Z,61.02
2018-12-29T00:10:57.463Z,61.37
2018-12-29T00:13:27.841Z,61.25
2018-12-29T00:15:58.225Z,61.34
2018-12-29T00:18:28.560Z,61.52
2018-12-29T00:20:58.970Z,61.48
2018-12-29T00:23:29.307Z,61.44
2018-12-29T00:25:59.696Z,61.45
2018-12-29T00:28:30.112Z,61.48
2018-12-29T00:31:00.451Z,61.66
2018-12-29T00:33:30.846Z,61.48
2018-12-29T00:36:01.150Z,61.75
2018-12-29T00:38:31.496Z,61.59
2018-12-29T00:41:01.846Z,61.46
2018-12-29T00:43:32.188Z,61.54
2018-12-29T00:46:02.532Z,61.56
2018-12-29T00:48:32.968Z,61.29
2018-12-29T00:51:03.339Z,60.86
2018-12-29T00:53:33.798Z,60.75
2018-12-29T00:56:04.172Z,60.63
2018-12-29T00:58:34.580Z,60.66
2018-12-29T01:01:04.882Z,60.64
2018-12-29T01:03:35.231Z,60.44
2018-12-29T01:06:05.621Z,60.29
2018-12-29T01:08:35.974Z,60.49
2018-12-29T01:11:06.345Z,60.43
2018-12-29T01:13:36.681Z,60.44
2018-12-29T01:16:07.094Z,60.33
2018-12-29T01:18:37.457Z,59.97
2018-12-29T01:21:07.835Z,60.17
2018-12-29T01:23:38.247Z,60.05
2018-12-29T01:26:08.612Z,60.15
2018-12-29T01:28:38.948Z,60.31
2018-12-29T01:31:09.292Z,60.29
2018-12-29T01:33:39.593Z,60.23
2018-12-29T01:36:09.931Z,60.28
2018-12-29T01:38:40.312Z,60.06
2018-12-29T01:41:10.648Z,60.01
2018-12-29T01:43:41.028Z,60.00
2018-12-29T01:46:11.376Z,60.01
2018-12-29T01:48:41.679Z,59.92
2018-12-29T01:51:12.064Z,59.88
2018-12-29T01:53:48.323Z,59.78
2018-12-29T01:56:18.703Z,59.94
2018-12-29T01:58:49.081Z,59.93
2018-12-29T02:01:19.453Z,60.02
2018-12-29T02:03:49.840Z,60.01
2018-12-29T02:06:20.139Z,59.93
2018-12-29T02:08:50.440Z,59.80
2018-12-29T02:11:20.815Z,60.02
2018-12-29T02:13:51.181Z,59.84
2018-12-29T02:16:21.556Z,59.93
2018-12-29T02:18:51.926Z,59.90
2018-12-29T02:21:22.288Z,59.85
2018-12-29T02:23:52.711Z,60.65
2018-12-29T02:26:23.056Z,61.72
2018-12-29T02:28:53.422Z,62.41
2018-12-29T02:31:23.760Z,62.92
2018-12-29T02:33:54.102Z,64.48
2018-12-29T02:36:24.455Z,64.89
2018-12-29T02:38:54.750Z,65.33
2018-12-29T02:41:25.120Z,65.50
2018-12-29T02:43:55.416Z,66.30
2018-12-29T02:46:25.787Z,65.85
2018-12-29T02:48:56.122Z,66.07
2018-12-29T02:51:26.482Z,66.55
2018-12-29T02:53:56.882Z,67.05
2018-12-29T02:56:27.206Z,67.07
2018-12-29T02:58:57.571Z,67.05
2018-12-29T03:01:27.894Z,67.55
2018-12-29T03:03:58.231Z,68.41
2018-12-29T03:06:28.592Z,68.08
2018-12-29T03:08:58.997Z,68.80
2018-12-29T03:11:29.415Z,68.47
2018-12-29T03:13:59.779Z,68.61
2018-12-29T03:16:30.151Z,68.81
2018-12-29T03:19:00.559Z,69.09
2018-12-29T03:21:30.881Z,68.90
2018-12-29T03:24:01.203Z,68.66
2018-12-29T03:26:31.607Z,68.44
2018-12-29T03:29:01.969Z,68.21
2018-12-29T03:31:32.339Z,67.71
2018-12-29T03:34:02.641Z,68.26
2018-12-29T03:36:33.004Z,67.87
2018-12-29T03:39:04.491Z,67.97
2018-12-29T03:41:34.888Z,67.75
2018-12-29T03:44:05.217Z,67.76
2018-12-29T03:46:35.581Z,67.15
2018-12-29T03:49:05.909Z,67.06
2018-12-29T03:51:36.244Z,66.90
2018-12-29T03:54:06.613Z,67.16
2018-12-29T03:56:37.028Z,67.03
2018-12-29T03:59:07.390Z,67.00
2018-12-29T04:01:37.761Z,66.51
2018-12-29T04:04:08.127Z,66.80
2018-12-29T04:06:38.492Z,66.45
2018-12-29T04:09:33.157Z,66.60
2018-12-29T04:12:22.882Z,66.32
2018-12-29T04:14:53.253Z,66.44
2018-12-29T04:17:23.752Z,66.28
2018-12-29T04:19:54.165Z,66.38
2018-12-29T04:22:24.535Z,66.11
2018-12-29T04:24:54.957Z,65.76
2018-12-29T04:27:25.288Z,65.81
2018-12-29T04:29:55.631Z,66.06
2018-12-29T04:32:25.969Z,66.10
2018-12-29T04:34:56.305Z,66.02
2018-12-29T04:37:26.642Z,66.10
2018-12-29T04:39:56.947Z,65.95
2018-12-29T04:42:27.321Z,66.14
2018-12-29T04:44:57.646Z,66.30
2018-12-29T04:47:27.985Z,66.44
2018-12-29T04:49:58.287Z,66.42
2018-12-29T04:52:28.659Z,66.30
2018-12-29T04:54:59.052Z,66.08
2018-12-29T04:57:29.398Z,66.16
2018-12-29T04:59:59.724Z,65.98
2018-12-29T05:02:30.123Z,65.85
2018-12-29T05:05:00.491Z,65.74
2018-12-29T05:07:30.860Z,65.97
2018-12-29T05:10:01.312Z,65.66
2018-12-29T05:12:31.674Z,65.66
2018-12-29T05:15:02.003Z,65.57
2018-12-29T05:17:32.308Z,65.89
2018-12-29T05:20:02.649Z,65.76
2018-12-29T05:22:33.059Z,65.35
2018-12-29T05:25:03.388Z,65.32
2018-12-29T05:27:33.790Z,65.43
2018-12-29T05:30:04.417Z,65.22
2018-12-29T05:32:34.779Z,65.01
2018-12-29T05:35:05.193Z,64.92
2018-12-29T05:37:35.489Z,65.00
2018-12-29T05:40:05.849Z,65.10
2018-12-29T05:42:36.180Z,64.86
2018-12-29T05:45:06.694Z,65.19
2018-12-29T05:47:37.023Z,65.04
2018-12-29T05:50:07.414Z,64.02
2018-12-29T05:52:37.797Z,63.61
2018-12-29T05:55:08.196Z,62.37
2018-12-29T05:57:38.567Z,62.05
2018-12-29T06:00:09.114Z,61.73
2018-12-29T06:02:39.456Z,61.25
2018-12-29T06:05:09.838Z,61.52
2018-12-29T06:07:40.235Z,60.78
2018-12-29T06:10:10.721Z,60.74
2018-12-29T06:12:41.073Z,60.59
2018-12-29T06:15:11.409Z,60.62
2018-12-29T06:17:41.788Z,60.53
2018-12-29T06:20:12.115Z,60.60
2018-12-29T06:22:42.484Z,60.51
2018-12-29T06:25:12.907Z,60.59
2018-12-29T06:27:43.343Z,60.22
2018-12-29T06:30:13.775Z,60.13
2018-12-29T06:32:44.131Z,60.13
2018-12-29T06:35:14.554Z,60.34
2018-12-29T06:37:44.894Z,60.34
2018-12-29T06:40:15.231Z,60.40
2018-12-29T06:42:45.557Z,60.58
2018-12-29T06:45:15.880Z,60.28
2018-12-29T06:47:46.220Z,59.75
2018-12-29T06:50:16.513Z,59.89
2018-12-29T06:52:46.875Z,60.15
2018-12-29T06:55:17.203Z,59.91
2018-12-29T06:57:47.613Z,59.66
2018-12-29T07:00:17.979Z,59.77
2018-12-29T07:02:48.329Z,59.22
2018-12-29T07:05:18.737Z,59.21
2018-12-29T07:07:49.060Z,58.75
2018-12-29T07:10:19.431Z,58.87
2018-12-29T07:12:49.740Z,58.88
2018-12-29T07:15:20.087Z,58.98
2018-12-29T07:17:50.418Z,59.18
2018-12-29T07:20:20.755Z,59.32
2018-12-29T07:22:51.112Z,59.32
2018-12-29T07:25:21.518Z,59.04
2018-12-29T07:27:51.892Z,59.38
2018-12-29T07:30:22.214Z,59.27
2018-12-29T07:32:52.556Z,59.46
2018-12-29T07:35:22.890Z,59.55
2018-12-29T07:37:53.217Z,59.44
2018-12-29T07:40:23.515Z,59.21
2018-12-29T07:42:54.000Z,59.46
2018-12-29T07:45:24.331Z,59.43
2018-12-29T07:47:54.668Z,59.24
2018-12-29T07:50:24.999Z,59.19
2018-12-29T07:52:55.407Z,58.54
2018-12-29T07:55:25.768Z,58.43
2018-12-29T07:57:56.097Z,58.18
2018-12-29T08:00:27.435Z,57.82
2018-12-29T08:02:57.882Z,57.79
2018-12-29T08:05:28.216Z,57.81
2018-12-29T08:07:58.630Z,57.44
2018-12-29T08:10:28.993Z,57.48
2018-12-29T08:12:59.368Z,57.02
2018-12-29T08:15:29.789Z,57.00
2018-12-29T08:18:00.202Z,57.19
2018-12-29T08:20:30.536Z,56.78
2018-12-29T08:23:00.843Z,56.81
2018-12-29T08:25:31.215Z,56.96
2018-12-29T08:28:01.544Z,56.67
2018-12-29T08:30:31.883Z,56.20
2018-12-29T08:33:02.218Z,56.24
2018-12-29T08:35:32.542Z,55.93
2018-12-29T08:38:02.870Z,55.77
2018-12-29T08:40:33.219Z,55.59
2018-12-29T08:43:03.590Z,55.18
2018-12-29T08:45:33.964Z,55.31
2018-12-29T08:48:04.377Z,55.28
2018-12-29T08:50:34.736Z,55.37
2018-12-29T08:53:05.145Z,55.14
2018-12-29T08:55:35.496Z,54.99
2018-12-29T08:58:05.878Z,55.35
2018-12-29T09:00:36.171Z,55.68
2018-12-29T09:03:06.512Z,55.29
2018-12-29T09:05:36.844Z,55.58
2018-12-29T09:08:07.221Z,54.76
2018-12-29T09:10:37.595Z,54.88
2018-12-29T09:13:07.963Z,54.75
2018-12-29T09:15:39.270Z,54.27
2018-12-29T09:18:09.683Z,54.07
2018-12-29T09:20:40.064Z,54.28
2018-12-29T09:23:10.399Z,53.86
2018-12-29T09:25:40.802Z,54.03
2018-12-29T09:28:11.141Z,53.96
2018-12-29T09:30:41.583Z,54.17
2018-12-29T09:33:11.929Z,53.93
2018-12-29T09:35:42.248Z,53.40
2018-12-29T09:38:12.592Z,53.81
2018-12-29T09:40:42.936Z,53.90
2018-12-29T09:43:13.340Z,53.42
2018-12-29T09:45:43.675Z,53.27
2018-12-29T09:48:14.002Z,53.22
2018-12-29T09:50:44.402Z,53.03
2018-12-29T09:53:14.760Z,53.12
2018-12-29T09:55:45.135Z,52.84
2018-12-29T09:58:15.500Z,52.82
2018-12-29T10:00:45.884Z,52.73
2018-12-29T10:03:16.211Z,52.58
2018-12-29T10:05:46.502Z,52.67
2018-12-29T10:08:16.837Z,52.45
2018-12-29T10:10:47.214Z,52.32
2018-12-29T10:13:17.549Z,52.19
2018-12-29T10:15:47.927Z,52.14
2018-12-29T10:18:18.262Z,51.97
2018-12-29T10:20:48.635Z,52.10
2018-12-29T10:23:19.143Z,51.92
2018-12-29T10:25:49.476Z,51.72
2018-12-29T10:28:19.843Z,52.14
2018-12-29T10:30:50.175Z,51.74
2018-12-29T10:33:20.542Z,51.45
2018-12-29T10:35:50.907Z,51.22
2018-12-29T10:38:21.275Z,51.41
2018-12-29T10:40:51.637Z,50.92
2018-12-29T10:43:22.054Z,51.14
2018-12-29T10:45:52.428Z,50.98
2018-12-29T10:48:22.831Z,50.84
2018-12-29T10:50:53.162Z,50.83
2018-12-29T10:53:23.534Z,50.69
2018-12-29T10:55:53.910Z,50.85
2018-12-29T10:58:24.398Z,51.11
2018-12-29T11:00:54.758Z,51.16
2018-12-29T11:03:25.093Z,51.07
2018-12-29T11:05:55.424Z,51.31
2018-12-29T11:08:25.777Z,50.71
2018-12-29T11:10:56.078Z,50.60
2018-12-29T11:13:26.423Z,50.65
2018-12-29T11:15:56.814Z,51.18
2018-12-29T11:18:27.162Z,51.13
2018-12-29T11:20:57.526Z,51.17
2018-12-29T11:23:27.896Z,51.17
2018-12-29T11:25:58.309Z,51.09
2018-12-29T11:28:28.680Z,51.35
2018-12-29T11:30:59.041Z,51.61
2018-12-29T11:33:29.406Z,51.87
2018-12-29T11:35:59.778Z,51.87
2018-12-29T11:38:30.111Z,51.99
2018-12-29T11:41:00.456Z,52.05
2018-12-29T11:43:30.846Z,51.65
2018-12-29T11:46:01.219Z,51.25
2018-12-29T11:48:31.585Z,51.10
2018-12-29T11:51:02.054Z,51.26
2018-12-29T11:53:32.735Z,50.88
2018-12-29T11:56:03.097Z,50.87
2018-12-29T11:58:33.473Z,51.10
2018-12-29T12:01:03.764Z,51.37
2018-12-29T12:03:34.116Z,51.08
2018-12-29T12:06:04.484Z,50.69
2018-12-29T12:08:34.773Z,50.91
2018-12-29T12:11:05.156Z,51.16
2018-12-29T12:13:35.542Z,51.02
2018-12-29T12:16:05.921Z,50.88
2018-12-29T12:18:36.217Z,50.68
2018-12-29T12:21:06.615Z,50.94
2018-12-29T12:23:37.005Z,50.74
2018-12-29T12:26:07.648Z,51.01
2018-12-29T12:28:38.133Z,50.82
2018-12-29T12:31:08.537Z,50.80
2018-12-29T12:33:38.904Z,50.80
2018-12-29T12:36:09.291Z,50.57
2018-12-29T12:38:39.655Z,50.71
2018-12-29T12:41:10.030Z,50.70
2018-12-29T12:43:40.361Z,50.70
2018-12-29T12:46:10.972Z,50.68
2018-12-29T12:48:41.305Z,50.84
2018-12-29T12:51:11.658Z,50.63
2018-12-29T12:53:41.993Z,51.01
2018-12-29T12:56:12.327Z,50.90
2018-12-29T12:58:42.664Z,51.28
2018-12-29T13:01:13.382Z,51.34
2018-12-29T13:03:43.748Z,51.31
2018-12-29T13:06:14.119Z,51.18
2018-12-29T13:08:44.534Z,51.49
2018-12-29T13:11:15.003Z,51.46
2018-12-29T13:13:45.539Z,51.44
2018-12-29T13:16:15.914Z,51.41
2018-12-29T13:18:46.293Z,51.69
2018-12-29T13:21:16.629Z,51.56
2018-12-29T13:23:46.919Z,51.49
2018-12-29T13:26:17.288Z,51.31
2018-12-29T13:28:47.620Z,51.46
2018-12-29T13:31:17.990Z,51.55
2018-12-29T13:33:48.317Z,52.33
2018-12-29T13:36:18.658Z,51.80
2018-12-29T13:38:48.993Z,52.33
2018-12-29T13:41:19.363Z,52.09
2018-12-29T13:43:49.763Z,52.29
2018-12-29T13:46:20.426Z,52.41
2018-12-29T13:48:50.803Z,52.08
2018-12-29T13:51:21.141Z,52.03
2018-12-29T13:53:51.469Z,52.16
2018-12-29T13:56:21.801Z,51.68
2018-12-29T13:58:52.129Z,51.97
2018-12-29T14:01:22.529Z,52.25
2018-12-29T14:03:52.924Z,52.17
2018-12-29T14:06:23.250Z,52.21
2018-12-29T14:08:53.578Z,52.21
2018-12-29T14:11:23.950Z,52.03
2018-12-29T14:13:54.278Z,52.17
2018-12-29T14:16:24.690Z,52.10
2018-12-29T14:18:55.481Z,52.33
2018-12-29T14:21:25.899Z,52.39
2018-12-29T14:23:56.262Z,52.55
2018-12-29T14:26:26.563Z,52.99
2018-12-29T14:28:56.905Z,53.12
2018-12-29T14:31:27.201Z,53.12
2018-12-29T14:33:57.551Z,53.54
2018-12-29T14:36:27.886Z,53.69
2018-12-29T14:38:58.232Z,53.58
2018-12-29T14:41:28.727Z,54.01
2018-12-29T14:43:59.090Z,54.39
2018-12-29T14:46:29.462Z,54.44
2018-12-29T14:48:59.833Z,54.55
2018-12-29T14:51:30.552Z,54.83
2018-12-29T14:54:00.882Z,54.83
2018-12-29T14:56:31.221Z,55.13
2018-12-29T14:59:01.602Z,55.26
2018-12-29T15:01:32.016Z,55.43
2018-12-29T15:04:02.410Z,55.41
2018-12-29T15:06:32.774Z,55.54
2018-12-29T15:09:04.769Z,55.73
2018-12-29T15:11:35.138Z,55.70
2018-12-29T15:14:05.464Z,56.01
2018-12-29T15:16:36.061Z,55.87
2018-12-29T15:19:06.437Z,56.00
2018-12-29T15:21:37.105Z,56.33
2018-12-29T15:24:08.989Z,56.36
2018-12-29T15:26:39.372Z,56.93
2018-12-29T15:29:10.018Z,56.38
2018-12-29T15:31:40.374Z,56.67
2018-12-29T15:34:10.701Z,56.55
2018-12-29T15:36:41.173Z,56.55
2018-12-29T15:39:11.477Z,56.50
2018-12-29T15:41:41.801Z,56.90
2018-12-29T15:44:12.196Z,56.78
2018-12-29T15:46:42.557Z,56.91
2018-12-29T15:49:12.922Z,57.03
2018-12-29T15:51:43.417Z,57.13
2018-12-29T15:54:13.825Z,57.13
2018-12-29T15:56:44.152Z,56.95
2018-12-29T15:59:14.495Z,56.90
2018-12-29T16:01:44.872Z,56.72
2018-12-29T16:04:15.194Z,56.65
2018-12-29T16:06:45.602Z,56.51
2018-12-29T16:09:15.971Z,56.85
2018-12-29T16:11:46.644Z,56.76
2018-12-29T16:14:17.017Z,56.57
2018-12-29T16:16:47.667Z,56.71
2018-12-29T16:19:18.038Z,56.73
2018-12-29T16:21:48.450Z,56.54
2018-12-29T16:24:18.967Z,56.70
2018-12-29T16:26:49.307Z,56.58
2018-12-29T16:29:19.598Z,56.59
2018-12-29T16:31:49.931Z,56.62
2018-12-29T16:34:20.303Z,56.37
2018-12-29T16:36:50.658Z,56.23
2018-12-29T16:39:21.028Z,56.42
2018-12-29T16:41:51.441Z,56.26
2018-12-29T16:44:21.842Z,55.98
2018-12-29T16:46:52.393Z,56.09
2018-12-29T16:49:22.723Z,56.08
2018-12-29T16:51:53.092Z,56.18
2018-12-29T16:54:23.470Z,56.04
2018-12-29T16:56:53.832Z,55.95
2018-12-29T16:59:24.409Z,56.12
2018-12-29T17:01:54.736Z,55.75
2018-12-29T17:04:25.109Z,55.80
2018-12-29T17:06:55.446Z,55.70
2018-12-29T17:09:26.028Z,55.54
2018-12-29T17:11:56.331Z,55.62
2018-12-29T17:14:26.633Z,55.47
2018-12-29T17:16:57.005Z,55.62
2018-12-29T17:19:27.367Z,55.68
2018-12-29T17:21:57.766Z,55.50
2018-12-29T17:24:28.178Z,55.46
2018-12-29T17:26:58.924Z,55.15
2018-12-29T17:29:29.336Z,55.61
2018-12-29T17:31:59.706Z,55.35
2018-12-29T17:34:30.082Z,55.21
2018-12-29T17:37:00.535Z,55.38
2018-12-29T17:39:30.891Z,55.05
2018-12-29T17:42:01.213Z,55.08
2018-12-29T17:44:31.544Z,55.24
2018-12-29T17:47:01.917Z,55.24
2018-12-29T17:49:32.251Z,55.23
2018-12-29T17:52:02.866Z,55.17
2018-12-29T17:54:33.168Z,54.97
2018-12-29T17:57:03.549Z,55.12
2018-12-29T17:59:33.836Z,54.79
2018-12-29T18:02:04.266Z,55.61
2018-12-29T18:04:34.923Z,54.97
2018-12-29T18:07:05.325Z,55.01
2018-12-29T18:09:35.648Z,55.07
2018-12-29T18:12:06.036Z,54.94
2018-12-29T18:14:36.357Z,55.31
2018-12-29T18:17:06.694Z,55.43
2018-12-29T18:19:37.027Z,55.34
2018-12-29T18:22:07.612Z,55.39
2018-12-29T18:24:37.981Z,55.94
2018-12-29T18:27:08.353Z,55.77
2018-12-29T18:29:38.754Z,55.68
2018-12-29T18:32:09.123Z,55.97
2018-12-29T18:34:39.697Z,55.76
2018-12-29T18:37:10.030Z,56.38
2018-12-29T18:39:40.403Z,56.24
2018-12-29T18:42:10.696Z,55.82
2018-12-29T18:44:41.028Z,55.96
2018-12-29T18:47:11.352Z,55.79
2018-12-29T18:49:41.695Z,55.68
2018-12-29T18:52:12.077Z,55.98
2018-12-29T18:54:42.458Z,56.14
2018-12-29T18:57:12.745Z,55.85
2018-12-29T18:59:43.076Z,55.97
2018-12-29T19:02:13.410Z,56.22
2018-12-29T19:04:44.198Z,56.19
2018-12-29T19:07:14.535Z,56.10
2018-12-29T19:09:45.856Z,56.32
2018-12-29T19:12:16.413Z,56.16
2018-12-29T19:14:46.794Z,56.33
2018-12-29T19:17:17.296Z,56.15
2018-12-29T19:19:47.716Z,56.30
2018-12-29T19:22:18.125Z,56.38
2018-12-29T19:24:48.527Z,56.33
2018-12-29T19:27:18.865Z,56.45
2018-12-29T19:29:49.197Z,56.18
2018-12-29T19:32:19.887Z,56.11
2018-12-29T19:34:50.490Z,55.98
2018-12-29T19:37:20.901Z,55.97
2018-12-29T19:39:51.262Z,56.19
2018-12-29T19:42:21.634Z,56.35
2018-12-29T19:44:52.196Z,56.34
2018-12-29T19:47:22.500Z,56.51
2018-12-29T19:49:53.827Z,56.28
2018-12-29T19:52:24.345Z,56.24
2018-12-29T19:54:54.643Z,56.35
2018-12-29T19:57:25.290Z,56.26
2018-12-29T19:59:55.617Z,56.26
2018-12-29T20:02:26.396Z,56.10
2018-12-29T20:04:57.472Z,56.13
2018-12-29T20:07:28.005Z,56.25
2018-12-29T20:09:58.363Z,56.36
2018-12-29T20:12:28.689Z,56.44
2018-12-29T20:14:59.022Z,56.30
2018-12-29T20:17:34.963Z,56.19
2018-12-29T20:20:01.847Z,56.04
2018-12-29T20:22:32.368Z,56.01
2018-12-29T20:25:02.733Z,55.92
2018-12-29T20:27:33.131Z,55.65
2018-12-29T20:30:03.910Z,55.88
2018-12-29T20:32:34.273Z,55.55
2018-12-29T20:35:04.705Z,55.49
2018-12-29T20:37:35.190Z,55.44
2018-12-29T20:40:06.428Z,55.21
2018-12-29T20:42:36.765Z,55.33
2018-12-29T20:45:07.352Z,55.42
2018-12-29T20:47:37.715Z,55.35
2018-12-29T20:50:09.641Z,55.57
2018-12-29T20:52:40.997Z,55.45
2018-12-29T20:55:11.326Z,55.34
2018-12-29T20:57:41.655Z,55.22
2018-12-29T21:00:12.123Z,55.51
2018-12-29T21:02:42.485Z,55.17
2018-12-29T21:05:13.081Z,55.33
2018-12-29T21:07:43.487Z,55.09
2018-12-29T21:10:13.889Z,55.54
2018-12-29T21:12:44.295Z,55.51
2018-12-29T21:15:14.653Z,55.46
2018-12-29T21:17:45.153Z,55.40
2018-12-29T21:20:17.532Z,55.77
2018-12-29T21:22:47.605Z,55.84
2018-12-29T21:25:17.969Z,55.69
2018-12-29T21:27:48.327Z,55.70
2018-12-29T21:30:18.692Z,55.89
2018-12-29T21:32:49.143Z,55.86
2018-12-29T21:35:19.537Z,55.75
2018-12-29T21:37:49.903Z,55.89
2018-12-29T21:40:20.259Z,56.04
2018-12-29T21:42:50.557Z,56.22
2018-12-29T21:45:20.884Z,55.91
2018-12-29T21:47:51.218Z,55.98
2018-12-29T21:50:25.305Z,56.24
2018-12-29T21:52:53.592Z,56.26
2018-12-29T21:55:23.954Z,56.39
2018-12-29T21:57:54.246Z,56.31
2018-12-29T22:00:24.613Z,56.33
2018-12-29T22:02:54.970Z,56.52
2018-12-29T22:05:25.647Z,56.26
2018-12-29T22:07:56.010Z,56.56
2018-12-29T22:10:26.373Z,56.54
2018-12-29T22:12:56.730Z,57.03
2018-12-29T22:15:27.094Z,56.82
2018-12-29T22:17:57.731Z,56.82
2018-12-29T22:20:33.228Z,57.01
2018-12-29T22:23:00.150Z,57.03
2018-12-29T22:25:30.534Z,56.86
2018-12-29T22:28:00.885Z,57.08
2018-12-29T22:30:31.209Z,57.12
2018-12-29T22:33:01.572Z,57.09
2018-12-29T22:35:31.907Z,57.20
2018-12-29T22:38:02.310Z,57.51
2018-12-29T22:40:32.671Z,57.57
2018-12-29T22:43:03.364Z,57.48
2018-12-29T22:45:33.729Z,57.45
2018-12-29T22:48:04.017Z,57.41
2018-12-29T22:50:40.859Z,57.85
2018-12-29T22:53:06.411Z,57.85
2018-12-29T22:55:36.710Z,57.62
2018-12-29T22:58:08.760Z,57.87
2018-12-29T23:00:40.553Z,57.74
2018-12-29T23:03:11.000Z,58.01
2018-12-29T23:05:41.327Z,58.02
2018-12-29T23:08:11.730Z,58.02
2018-12-29T23:10:42.224Z,58.13
2018-12-29T23:13:12.544Z,58.11
2018-12-29T23:15:42.924Z,58.19
2018-12-29T23:18:13.330Z,58.26
2018-12-29T23:20:48.969Z,58.23
2018-12-29T23:23:15.920Z,58.28
2018-12-29T23:25:46.629Z,58.32
2018-12-29T23:28:17.032Z,58.57
2018-12-29T23:30:47.425Z,58.61
2018-12-29T23:33:17.805Z,58.39
2018-12-29T23:35:48.207Z,58.25
2018-12-29T23:38:18.606Z,58.39
2018-12-29T23:40:48.970Z,58.38
2018-12-29T23:43:19.299Z,58.54
2018-12-29T23:45:49.771Z,58.53
2018-12-29T23:48:20.142Z,58.65
2018-12-29T23:51:05.121Z,58.62
2018-12-29T23:53:22.486Z,58.40
2018-12-29T23:55:53.026Z,58.76
2018-12-29T23:58:23.322Z,58.66
